Time;durP1;ratioP1;P1;durP2;ratioP2;P2;SDS_P1;SDS_P2;PMS_P1;PMS_P2;Temp;Humidity;BMP_temperature;BMP_pressure;BME280_temperature;BME280_humidity;BME280_pressure;Samples;Min_cycle;Max_cycle;Signal;HPM_P1;HPM_P2
2023/02/28 00:00:31;;;;;;;9.98;6.78;;;-2.90;96.30;;;;;;5035673;28;20632;-64
2023/02/28 00:02:56;;;;;;;11.38;6.38;;;-2.90;97.20;;;;;;5037490;28;20029;-64
2023/02/28 00:05:24;;;;;;;12.45;6.55;;;-2.90;97.50;;;;;;5031943;28;20452;-63
2023/02/28 00:07:50;;;;;;;11.57;6.75;;;-3.00;97.50;;;;;;5037099;28;20492;-64
2023/02/28 00:10:25;;;;;;;11.38;6.85;;;-3.00;97.40;;;;;;5036565;28;20079;-64
2023/02/28 00:12:51;;;;;;;11.32;6.57;;;-3.00;97.60;;;;;;5038919;28;20025;-63
2023/02/28 00:15:18;;;;;;;12.40;7.15;;;-3.00;97.80;;;;;;5034361;28;20097;-64
2023/02/28 00:17:44;;;;;;;11.30;6.63;;;-3.00;98.00;;;;;;5039497;28;20036;-63
2023/02/28 00:20:11;;;;;;;18.27;10.43;;;-3.00;98.00;;;;;;5024636;28;20033;-63
2023/02/28 00:22:46;;;;;;;11.38;6.93;;;-3.00;98.00;;;;;;5032935;28;20055;-63
2023/02/28 00:25:14;;;;;;;11.55;6.68;;;-3.10;97.80;;;;;;5027403;28;20026;-64
2023/02/28 00:27:40;;;;;;;12.23;7.55;;;-3.10;98.00;;;;;;5021870;28;20029;-63
2023/02/28 00:30:08;;;;;;;11.20;7.18;;;-3.10;98.00;;;;;;5028582;28;20030;-64
2023/02/28 00:32:37;;;;;;;10.85;6.13;;;-3.20;98.00;;;;;;5020563;28;20037;-62
2023/02/28 00:35:06;;;;;;;10.50;6.78;;;-3.20;98.00;;;;;;5031587;28;20037;-64
2023/02/28 00:37:31;;;;;;;12.50;6.32;;;-3.20;98.00;;;;;;5037229;28;20037;-64
2023/02/28 00:39:57;;;;;;;11.15;6.22;;;-3.10;98.00;;;;;;5035311;28;20033;-63
2023/02/28 00:42:24;;;;;;;10.68;6.38;;;-3.20;98.00;;;;;;5029371;28;20048;-64
2023/02/28 00:44:49;;;;;;;11.98;6.20;;;-3.30;98.00;;;;;;5055598;28;20060;-64
2023/02/28 00:47:18;;;;;;;10.00;6.78;;;-3.30;98.00;;;;;;5043786;28;20420;-63
2023/02/28 00:49:44;;;;;;;10.50;6.28;;;-3.30;98.00;;;;;;5031716;28;20096;-63
2023/02/28 00:52:10;;;;;;;11.40;6.85;;;-3.40;98.00;;;;;;5032076;28;20565;-63
2023/02/28 00:54:38;;;;;;;10.13;6.53;;;-3.40;98.00;;;;;;5027592;28;20033;-63
2023/02/28 00:57:04;;;;;;;11.82;6.70;;;-3.40;98.00;;;;;;5041707;28;20024;-63
2023/02/28 00:59:29;;;;;;;12.38;6.75;;;-3.40;98.00;;;;;;5038306;28;20438;-63
2023/02/28 01:01:58;;;;;;;11.50;6.35;;;-3.50;98.00;;;;;;5042192;28;20058;-62
2023/02/28 01:04:37;;;;;;;12.13;5.75;;;-3.50;98.00;;;;;;5040894;28;20472;-63
2023/02/28 01:07:05;;;;;;;11.73;6.85;;;-3.60;98.00;;;;;;5031261;28;20079;-65
2023/02/28 01:09:30;;;;;;;9.98;6.63;;;-3.60;98.00;;;;;;5031428;28;20030;-65
2023/02/28 01:11:58;;;;;;;9.32;6.13;;;-3.60;98.00;;;;;;5024917;28;20030;-63
2023/02/28 01:14:23;;;;;;;10.23;5.97;;;-3.70;98.00;;;;;;5045243;28;20426;-64
2023/02/28 01:16:49;;;;;;;13.25;7.97;;;-3.60;98.00;;;;;;5040814;28;20091;-63
2023/02/28 01:19:15;;;;;;;12.90;7.80;;;-3.60;98.00;;;;;;5042010;28;20021;-64
2023/02/28 01:21:40;;;;;;;11.38;6.50;;;-3.60;98.00;;;;;;5044652;28;20028;-64
2023/02/28 01:24:07;;;;;;;11.68;6.13;;;-3.60;98.00;;;;;;5033835;28;20033;-64
2023/02/28 01:26:32;;;;;;;10.30;6.78;;;-3.60;98.00;;;;;;5034412;28;20422;-63
2023/02/28 01:28:58;;;;;;;11.70;6.50;;;-3.60;98.00;;;;;;5029528;28;20022;-64
2023/02/28 01:31:24;;;;;;;10.90;6.97;;;-3.60;98.00;;;;;;5030794;28;20084;-63
2023/02/28 01:33:52;;;;;;;10.45;6.90;;;-3.70;98.00;;;;;;5031015;28;20095;-64
2023/02/28 01:36:23;;;;;;;10.32;6.70;;;-3.70;98.00;;;;;;5031082;28;20038;-63
2023/02/28 01:38:49;;;;;;;11.60;6.57;;;-3.70;98.00;;;;;;5038927;28;20021;-63
2023/02/28 01:41:24;;;;;;;12.27;7.07;;;-3.70;98.00;;;;;;5041734;28;20314;-63
2023/02/28 01:43:52;;;;;;;12.75;6.53;;;-3.70;98.00;;;;;;5024861;28;20065;-64
2023/02/28 01:46:19;;;;;;;11.55;6.60;;;-3.70;98.00;;;;;;5024400;28;20318;-63
2023/02/28 01:48:51;;;;;;;12.30;7.15;;;-3.70;98.00;;;;;;5035023;28;20373;-64
2023/02/28 01:51:24;;;;;;;10.95;6.80;;;-3.80;98.00;;;;;;5022844;28;20076;-63
2023/02/28 01:53:55;;;;;;;10.68;6.38;;;-3.80;98.00;;;;;;5046359;28;20049;-63
2023/02/28 01:56:28;;;;;;;12.82;6.82;;;-3.80;98.00;;;;;;5058245;28;20030;-62
2023/02/28 01:58:54;;;;;;;11.27;7.25;;;-3.90;98.00;;;;;;5029127;28;20067;-63
2023/02/28 02:01:26;;;;;;;10.68;7.38;;;-4.00;98.00;;;;;;5025926;28;20030;-64
2023/02/28 02:03:55;;;;;;;13.45;7.80;;;-4.10;98.00;;;;;;5029875;28;20026;-63
2023/02/28 02:06:29;;;;;;;13.20;8.48;;;-4.10;98.00;;;;;;5038100;28;20123;-63
2023/02/28 02:08:55;;;;;;;13.75;7.88;;;-4.20;98.00;;;;;;5034817;28;20314;-63
2023/02/28 02:11:25;;;;;;;15.30;8.35;;;-4.20;98.00;;;;;;5031567;28;20037;-64
2023/02/28 02:13:53;;;;;;;12.35;7.78;;;-4.30;98.00;;;;;;5035033;28;20325;-63
2023/02/28 02:16:36;;;;;;;12.35;7.70;;;-4.40;97.60;;;;;;5037856;28;20041;-64
2023/02/28 02:19:22;;;;;;;12.55;9.02;;;-4.40;97.30;;;;;;5038522;28;20059;-63
2023/02/28 02:22:25;;;;;;;13.73;8.02;;;-4.40;96.50;;;;;;5033086;28;20151;-63
2023/02/28 02:24:59;;;;;;;18.35;9.00;;;-4.40;96.50;;;;;;5024920;28;20051;-64
2023/02/28 02:27:48;;;;;;;15.13;8.85;;;-4.40;96.50;;;;;;5031738;28;20033;-63
2023/02/28 02:30:16;;;;;;;12.75;9.07;;;-4.40;96.60;;;;;;5026102;28;20042;-63
2023/02/28 02:33:08;;;;;;;13.23;8.27;;;-4.30;96.30;;;;;;5037093;28;20068;-64
2023/02/28 02:35:46;;;;;;;13.15;8.40;;;-4.30;95.80;;;;;;5035026;28;20406;-63
2023/02/28 02:38:34;;;;;;;15.38;9.65;;;-4.30;96.00;;;;;;5025789;28;20033;-63
2023/02/28 02:41:07;;;;;;;14.27;9.70;;;-4.30;95.40;;;;;;5024380;28;20386;-63
2023/02/28 02:43:38;;;;;;;15.00;9.65;;;-4.30;95.80;;;;;;5037940;28;20434;-63
2023/02/28 02:46:21;;;;;;;12.70;8.27;;;-4.30;95.60;;;;;;5032353;28;20453;-63
2023/02/28 02:48:49;;;;;;;16.95;9.50;;;-4.20;95.50;;;;;;5039157;28;20029;-63
2023/02/28 02:51:18;;;;;;;15.18;8.90;;;-4.20;95.30;;;;;;5034789;28;20025;-63
2023/02/28 02:53:51;;;;;;;10.57;8.07;;;-4.10;95.50;;;;;;5037682;28;20030;-63
2023/02/28 02:56:24;;;;;;;14.47;9.73;;;-4.10;96.00;;;;;;5034567;28;20437;-62
2023/02/28 02:58:52;;;;;;;15.52;9.88;;;-4.00;96.90;;;;;;5025917;28;20060;-63
2023/02/28 03:01:27;;;;;;;13.15;8.85;;;-4.00;96.70;;;;;;5030227;28;20030;-62
2023/02/28 03:03:57;;;;;;;14.43;9.02;;;-4.00;96.80;;;;;;5025454;28;20304;-63
2023/02/28 03:06:24;;;;;;;12.65;9.20;;;-3.90;97.40;;;;;;5027664;28;20029;-64
2023/02/28 03:08:49;;;;;;;13.10;9.25;;;-3.90;97.50;;;;;;5038540;28;20030;-64
2023/02/28 03:11:15;;;;;;;13.73;9.55;;;-3.90;98.00;;;;;;5035888;28;20092;-63
2023/02/28 03:14:09;;;;;;;13.07;8.27;;;-3.90;98.00;;;;;;5031828;28;20033;-63
2023/02/28 03:16:38;;;;;;;14.85;9.23;;;-3.90;97.80;;;;;;5033904;28;20101;-63
2023/02/28 03:19:19;;;;;;;10.38;7.45;;;-3.90;98.00;;;;;;5040145;28;20034;-63
2023/02/28 03:22:01;;;;;;;15.60;8.75;;;-3.90;97.30;;;;;;5033753;28;20025;-63
2023/02/28 03:24:46;;;;;;;15.27;8.45;;;-3.80;97.30;;;;;;5030720;28;20022;-63
2023/02/28 03:27:15;;;;;;;;;;;-3.80;98.00;;;;;;5034053;28;20144;-64
2023/02/28 03:29:50;;;;;;;13.43;9.15;;;-3.80;98.00;;;;;;5025623;28;19909;-63
2023/02/28 03:32:25;;;;;;;14.02;9.25;;;-3.90;98.00;;;;;;5030127;28;20056;-63
2023/02/28 03:35:21;;;;;;;13.60;8.38;;;-3.90;97.70;;;;;;5049315;28;20033;-63
2023/02/28 03:37:58;;;;;;;14.77;8.57;;;-3.80;97.40;;;;;;5027953;28;20018;-63
2023/02/28 03:40:28;;;;;;;11.52;8.35;;;-3.80;98.00;;;;;;5024662;28;20025;-63
2023/02/28 03:43:02;;;;;;;12.63;8.38;;;-3.90;98.00;;;;;;5025634;28;20347;-63
2023/02/28 03:45:30;;;;;;;11.05;8.48;;;-3.80;97.40;;;;;;5024615;28;20030;-63
2023/02/28 03:48:17;;;;;;;11.65;7.88;;;-3.80;98.00;;;;;;5033342;28;20321;-63
2023/02/28 03:50:46;;;;;;;14.63;8.73;;;-3.80;98.00;;;;;;5036621;28;20035;-63
2023/02/28 03:53:25;;;;;;;13.85;8.45;;;-3.80;98.00;;;;;;5048310;28;20076;-63
2023/02/28 03:56:05;;;;;;;11.88;7.30;;;-3.90;98.00;;;;;;5049751;28;20021;-63
2023/02/28 03:59:10;;;;;;;13.18;9.13;;;-3.80;98.00;;;;;;5038551;28;20151;-62
2023/02/28 04:01:44;;;;;;;13.52;8.65;;;-3.80;98.00;;;;;;5024817;28;20338;-62
2023/02/28 04:04:11;;;;;;;14.30;7.30;;;-3.80;98.00;;;;;;5035147;28;20099;-65
2023/02/28 04:06:41;;;;;;;13.70;8.05;;;-3.70;98.00;;;;;;5028791;28;20096;-64
2023/02/28 04:09:12;;;;;;;14.75;8.25;;;-3.70;98.00;;;;;;5037905;28;20030;-64
2023/02/28 04:11:44;;;;;;;13.73;7.78;;;-3.70;98.00;;;;;;5033189;28;20422;-63
2023/02/28 04:14:11;;;;;;;12.00;8.95;;;-3.70;98.00;;;;;;5027940;28;20042;-63
2023/02/28 04:16:39;;;;;;;11.27;7.60;;;-3.60;98.00;;;;;;5042682;28;20064;-63
2023/02/28 04:19:06;;;;;;;11.75;7.70;;;-3.60;98.00;;;;;;5034505;28;20365;-62
2023/02/28 04:21:38;;;;;;;10.27;6.78;;;-3.60;98.00;;;;;;5030404;28;20065;-63
2023/02/28 04:24:05;;;;;;;11.80;7.60;;;-3.60;98.00;;;;;;5036324;28;20034;-64
2023/02/28 04:26:35;;;;;;;12.43;7.75;;;-3.60;98.00;;;;;;5034739;28;20033;-63
2023/02/28 04:29:03;;;;;;;13.27;8.60;;;-3.60;98.00;;;;;;5029448;28;20057;-63
2023/02/28 04:31:29;;;;;;;13.20;8.13;;;-3.70;98.00;;;;;;5029387;28;20389;-65
2023/02/28 04:33:55;;;;;;;11.85;7.68;;;-3.70;98.00;;;;;;5022889;28;20065;-63
2023/02/28 04:36:22;;;;;;;12.50;8.25;;;-3.60;98.00;;;;;;5037811;28;20037;-63
2023/02/28 04:38:48;;;;;;;12.77;8.43;;;-3.60;98.00;;;;;;5042310;28;20030;-63
2023/02/28 04:41:14;;;;;;;13.40;8.75;;;-3.50;98.00;;;;;;5020864;28;20372;-64
2023/02/28 04:43:40;;;;;;;15.00;9.35;;;-3.50;98.00;;;;;;5032517;28;20033;-63
2023/02/28 04:46:06;;;;;;;14.98;7.93;;;-3.50;98.00;;;;;;5046158;28;20033;-63
2023/02/28 04:48:34;;;;;;;12.50;7.30;;;-3.50;98.00;;;;;;5040142;28;20025;-63
2023/02/28 04:51:01;;;;;;;13.52;8.00;;;-3.50;98.00;;;;;;5028563;28;20084;-63
2023/02/28 04:53:28;;;;;;;13.23;7.82;;;-3.60;98.00;;;;;;5032554;28;20033;-64
2023/02/28 04:55:54;;;;;;;12.20;7.75;;;-3.60;98.00;;;;;;5032498;28;20030;-63
2023/02/28 04:58:22;;;;;;;14.60;8.45;;;-3.60;98.00;;;;;;5024366;28;20060;-63
2023/02/28 05:00:48;;;;;;;13.30;8.98;;;-3.60;98.00;;;;;;5025516;28;20044;-62
2023/02/28 05:03:14;;;;;;;11.40;8.30;;;-3.50;98.00;;;;;;5029304;28;20028;-63
2023/02/28 05:05:39;;;;;;;13.48;8.95;;;-3.50;98.00;;;;;;5034004;28;20094;-63
2023/02/28 05:08:05;;;;;;;14.30;8.73;;;-3.50;98.00;;;;;;5034820;28;20418;-63
2023/02/28 05:10:31;;;;;;;13.82;8.20;;;-3.50;98.00;;;;;;5031525;28;20036;-63
2023/02/28 05:12:57;;;;;;;13.52;8.88;;;-3.50;98.00;;;;;;5033134;28;20036;-63
2023/02/28 05:15:23;;;;;;;14.25;8.40;;;-3.50;98.00;;;;;;5038456;28;20025;-63
2023/02/28 05:17:49;;;;;;;14.23;9.02;;;-3.50;98.00;;;;;;5032404;28;20029;-62
2023/02/28 05:20:14;;;;;;;15.50;9.43;;;-3.50;98.00;;;;;;5035533;28;20033;-63
2023/02/28 05:22:42;;;;;;;16.70;10.55;;;-3.50;98.00;;;;;;5032214;28;20030;-62
2023/02/28 05:25:17;;;;;;;13.30;8.40;;;-3.50;98.00;;;;;;5034966;28;20037;-62
2023/02/28 05:27:44;;;;;;;14.43;8.85;;;-3.50;98.00;;;;;;5031741;28;20041;-62
2023/02/28 05:30:12;;;;;;;16.33;9.32;;;-3.50;98.00;;;;;;5027481;28;20450;-62
2023/02/28 05:32:39;;;;;;;13.98;9.63;;;-3.50;98.00;;;;;;5031734;28;20026;-63
2023/02/28 05:35:05;;;;;;;15.68;10.57;;;-3.50;98.00;;;;;;5027335;28;20165;-63
2023/02/28 05:37:31;;;;;;;17.23;9.90;;;-3.50;98.00;;;;;;5028670;28;20036;-62
2023/02/28 05:39:59;;;;;;;17.45;9.95;;;-3.60;98.00;;;;;;5033831;28;20369;-62
2023/02/28 05:42:25;;;;;;;17.45;10.93;;;-3.60;98.00;;;;;;5030345;28;20033;-63
2023/02/28 05:44:51;;;;;;;16.90;11.10;;;-3.60;98.00;;;;;;5028401;28;20052;-63
2023/02/28 05:47:17;;;;;;;15.13;10.18;;;-3.60;98.00;;;;;;5031915;28;20429;-63
2023/02/28 05:49:42;;;;;;;16.10;10.00;;;-3.60;98.00;;;;;;5033493;28;20100;-63
2023/02/28 05:52:08;;;;;;;17.52;10.70;;;-3.60;98.00;;;;;;5026231;28;20362;-63
2023/02/28 05:54:34;;;;;;;16.00;10.75;;;-3.60;98.00;;;;;;5015799;28;20108;-63
2023/02/28 05:56:59;;;;;;;13.02;9.82;;;-3.60;98.00;;;;;;5016075;28;20037;-63
2023/02/28 05:59:25;;;;;;;16.17;10.20;;;-3.60;98.00;;;;;;5031751;28;20050;-63
2023/02/28 06:01:51;;;;;;;16.23;9.95;;;-3.60;98.00;;;;;;5017213;28;20326;-62
2023/02/28 06:04:19;;;;;;;17.75;10.68;;;-3.50;98.00;;;;;;5020552;28;20108;-63
2023/02/28 06:06:48;;;;;;;17.23;10.68;;;-3.50;98.00;;;;;;5017815;28;20030;-63
2023/02/28 06:09:17;;;;;;;17.42;10.82;;;-3.50;98.00;;;;;;5013258;28;20033;-63
2023/02/28 06:11:43;;;;;;;16.42;10.82;;;-3.50;98.00;;;;;;5019929;28;20030;-62
2023/02/28 06:14:17;;;;;;;17.13;10.15;;;-3.40;98.00;;;;;;5022236;28;20025;-63
2023/02/28 06:16:43;;;;;;;16.00;10.07;;;-3.40;98.00;;;;;;5013223;28;20038;-62
2023/02/28 06:19:09;;;;;;;18.35;10.02;;;-3.40;98.00;;;;;;5016493;28;20040;-62
2023/02/28 06:21:36;;;;;;;21.52;11.63;;;-3.40;98.00;;;;;;5015663;28;20026;-63
2023/02/28 06:24:02;;;;;;;14.65;10.65;;;-3.40;98.00;;;;;;5033961;28;20036;-62
2023/02/28 06:26:28;;;;;;;16.08;10.55;;;-3.40;98.00;;;;;;5024282;28;20029;-63
2023/02/28 06:28:54;;;;;;;22.60;13.30;;;-3.30;98.00;;;;;;5027395;28;20030;-63
2023/02/28 06:31:20;;;;;;;19.15;10.90;;;-3.40;98.00;;;;;;5026987;28;20053;-63
2023/02/28 06:33:46;;;;;;;18.30;11.55;;;-3.30;98.00;;;;;;5024572;28;20445;-65
2023/02/28 06:36:13;;;;;;;15.80;10.48;;;-3.30;98.00;;;;;;5032351;28;20029;-63
2023/02/28 06:38:40;;;;;;;18.38;11.90;;;-3.30;98.00;;;;;;5033968;28;20048;-63
2023/02/28 06:41:06;;;;;;;17.67;10.73;;;-3.20;98.00;;;;;;5033081;28;20033;-63
2023/02/28 06:43:36;;;;;;;21.23;12.90;;;-3.20;98.00;;;;;;5026526;28;20100;-63
2023/02/28 06:46:05;;;;;;;18.67;12.25;;;-3.10;98.00;;;;;;5029323;28;20433;-62
2023/02/28 06:48:30;;;;;;;18.02;10.98;;;-3.10;98.00;;;;;;5029553;28;20037;-63
2023/02/28 06:51:14;;;;;;;20.73;13.50;;;-3.10;98.00;;;;;;5030765;28;20034;-62
2023/02/28 06:53:40;;;;;;;19.83;12.05;;;-3.10;98.00;;;;;;5031261;28;20026;-62
2023/02/28 06:56:12;;;;;;;22.48;14.85;;;-3.00;98.00;;;;;;5033692;28;20029;-64
2023/02/28 06:58:39;;;;;;;22.63;14.85;;;-3.00;98.00;;;;;;5025975;28;20038;-64
2023/02/28 07:01:08;;;;;;;25.05;13.90;;;-3.00;98.00;;;;;;5033591;28;20028;-63
2023/02/28 07:03:35;;;;;;;20.63;14.10;;;-2.90;98.00;;;;;;5031653;28;20041;-63
2023/02/28 07:06:02;;;;;;;26.80;16.40;;;-2.80;98.00;;;;;;5033097;28;20041;-64
2023/02/28 07:08:28;;;;;;;24.67;15.63;;;-2.70;98.00;;;;;;5027364;28;20414;-63
2023/02/28 07:10:55;;;;;;;22.45;15.38;;;-2.70;98.00;;;;;;5036512;28;20163;-63
2023/02/28 07:13:21;;;;;;;25.00;15.00;;;-2.60;98.00;;;;;;5030884;28;20455;-62
2023/02/28 07:16:02;;;;;;;23.42;15.50;;;-2.50;98.00;;;;;;5027588;28;20078;-63
2023/02/28 07:18:27;;;;;;;22.15;15.20;;;-2.50;98.00;;;;;;5021615;28;20037;-64
2023/02/28 07:20:54;;;;;;;21.83;13.88;;;-2.40;98.00;;;;;;5029510;28;20025;-64
2023/02/28 07:23:20;;;;;;;22.50;14.85;;;-2.40;98.00;;;;;;5024873;28;20053;-64
2023/02/28 07:25:45;;;;;;;22.25;13.95;;;-2.30;98.00;;;;;;5018655;28;20423;-64
2023/02/28 07:28:12;;;;;;;21.95;14.85;;;-2.30;98.00;;;;;;5031500;28;20036;-62
2023/02/28 07:30:38;;;;;;;22.80;14.30;;;-2.30;98.00;;;;;;5037112;28;20411;-63
2023/02/28 07:33:04;;;;;;;24.33;15.48;;;-2.30;98.00;;;;;;5027109;28;20092;-63
2023/02/28 07:35:30;;;;;;;24.50;16.38;;;-2.20;98.00;;;;;;5020270;28;20484;-62
2023/02/28 07:37:58;;;;;;;21.15;14.43;;;-2.10;98.00;;;;;;5032028;28;20108;-63
2023/02/28 07:40:23;;;;;;;22.00;14.82;;;-2.10;98.00;;;;;;5038105;28;20031;-63
2023/02/28 07:42:49;;;;;;;19.75;12.95;;;-2.10;97.90;;;;;;5031765;28;20104;-63
2023/02/28 07:45:15;;;;;;;20.02;12.73;;;-2.00;97.80;;;;;;5018399;28;20426;-63
2023/02/28 07:47:41;;;;;;;23.50;15.23;;;-2.00;97.60;;;;;;5024073;28;20168;-63
2023/02/28 07:50:10;;;;;;;22.42;14.27;;;-2.00;97.30;;;;;;5037767;28;20105;-63
2023/02/28 07:52:37;;;;;;;21.73;14.15;;;-1.90;97.50;;;;;;5019844;28;20044;-63
2023/02/28 07:55:07;;;;;;;21.52;14.55;;;-1.90;97.10;;;;;;5026185;28;20030;-64
2023/02/28 07:57:33;;;;;;;23.38;15.10;;;-2.00;97.10;;;;;;5032039;28;20021;-64
2023/02/28 07:59:58;;;;;;;26.00;14.77;;;-1.90;97.50;;;;;;5033674;28;20028;-63
2023/02/28 08:02:24;;;;;;;23.42;15.95;;;-1.80;97.20;;;;;;5017600;28;20026;-64
2023/02/28 08:04:50;;;;;;;31.23;19.25;;;-1.80;97.20;;;;;;5017723;28;20029;-64
2023/02/28 08:07:17;;;;;;;25.58;15.77;;;-1.80;97.00;;;;;;5017836;28;20026;-64
2023/02/28 08:09:43;;;;;;;22.38;14.85;;;-1.80;97.10;;;;;;5017774;28;20025;-64
2023/02/28 08:12:10;;;;;;;31.00;20.02;;;-1.80;96.80;;;;;;5016537;28;20469;-64
2023/02/28 08:14:39;;;;;;;21.40;14.48;;;-1.70;96.90;;;;;;5019619;28;20026;-64
2023/02/28 08:17:08;;;;;;;22.17;15.48;;;-1.70;96.80;;;;;;5036218;28;20029;-64
2023/02/28 08:19:34;;;;;;;20.08;14.35;;;-1.50;96.20;;;;;;5037298;28;20033;-64
2023/02/28 08:21:59;;;;;;;23.42;15.00;;;-1.50;95.70;;;;;;5037427;28;20022;-64
2023/02/28 08:24:25;;;;;;;20.92;13.57;;;-1.50;96.20;;;;;;5037140;28;20100;-63
2023/02/28 08:26:51;;;;;;;21.27;14.95;;;-1.30;96.20;;;;;;5030923;28;20433;-63
2023/02/28 08:29:16;;;;;;;19.92;14.77;;;-1.30;95.70;;;;;;5018691;28;20045;-63
2023/02/28 08:31:42;;;;;;;25.02;16.20;;;-1.30;95.40;;;;;;5035969;28;20076;-63
2023/02/28 08:34:09;;;;;;;20.17;13.85;;;-1.20;95.70;;;;;;5036936;28;20061;-64
2023/02/28 08:36:35;;;;;;;21.70;14.30;;;-1.30;94.90;;;;;;5033101;28;20100;-63
2023/02/28 08:39:00;;;;;;;24.70;15.75;;;-1.20;95.40;;;;;;5037035;28;20092;-63
2023/02/28 08:41:26;;;;;;;27.67;18.50;;;-1.20;95.20;;;;;;5034455;28;20484;-63
2023/02/28 08:43:51;;;;;;;22.20;15.38;;;-1.30;95.20;;;;;;5017125;28;20592;-63
2023/02/28 08:46:17;;;;;;;23.75;14.82;;;-1.30;95.40;;;;;;5016046;28;20482;-63
2023/02/28 08:48:43;;;;;;;22.85;15.35;;;-1.30;95.50;;;;;;5016999;28;20022;-63
2023/02/28 08:51:12;;;;;;;23.15;15.02;;;-1.30;95.10;;;;;;5025172;28;20029;-63
2023/02/28 08:53:39;;;;;;;20.52;14.68;;;-1.40;94.90;;;;;;5036611;28;20022;-63
2023/02/28 08:56:16;;;;;;;20.42;14.98;;;-1.30;95.70;;;;;;5036614;28;20636;-63
2023/02/28 08:58:42;;;;;;;22.20;14.55;;;-1.00;95.50;;;;;;5036519;28;20053;-63
2023/02/28 09:01:20;;;;;;;23.02;14.82;;;-1.00;94.50;;;;;;5035107;28;20026;-63
2023/02/28 09:03:47;;;;;;;26.77;16.27;;;-1.00;94.70;;;;;;5036669;28;20056;-63
2023/02/28 09:06:16;;;;;;;21.48;14.57;;;-0.90;93.90;;;;;;5030215;28;20030;-63
2023/02/28 09:08:42;;;;;;;21.17;15.18;;;-1.00;94.20;;;;;;5016747;28;20026;-63
2023/02/28 09:11:08;;;;;;;24.80;15.93;;;-1.00;94.50;;;;;;5017001;28;20032;-63
2023/02/28 09:13:34;;;;;;;23.40;14.95;;;-0.90;94.20;;;;;;5016633;28;20036;-63
2023/02/28 09:16:02;;;;;;;23.02;14.88;;;-0.90;93.80;;;;;;5015574;28;20018;-64
2023/02/28 09:18:28;;;;;;;20.73;14.65;;;-0.80;94.10;;;;;;5016819;28;20030;-63
2023/02/28 09:20:54;;;;;;;19.85;14.38;;;-0.70;93.90;;;;;;5017857;28;20029;-63
2023/02/28 09:23:20;;;;;;;22.48;15.07;;;-0.70;93.10;;;;;;5016333;28;20346;-63
2023/02/28 09:25:48;;;;;;;23.23;15.95;;;-0.90;93.10;;;;;;5016633;28;20022;-63
2023/02/28 09:28:16;;;;;;;25.83;16.42;;;-1.00;93.60;;;;;;5034409;28;20035;-63
2023/02/28 09:30:46;;;;;;;23.33;15.10;;;-1.00;94.10;;;;;;5035898;28;20513;-63
2023/02/28 09:33:12;;;;;;;22.45;15.77;;;-0.70;94.20;;;;;;5036124;28;20120;-63
2023/02/28 09:35:38;;;;;;;24.42;15.75;;;-0.60;93.20;;;;;;5031851;28;20025;-63
2023/02/28 09:38:04;;;;;;;26.50;17.77;;;-0.70;93.30;;;;;;5032971;28;20040;-63
2023/02/28 09:40:31;;;;;;;31.95;19.15;;;-0.50;93.90;;;;;;5028506;28;20017;-63
2023/02/28 09:42:59;;;;;;;44.00;25.73;;;-0.40;93.10;;;;;;5036263;28;20033;-62
2023/02/28 09:45:27;;;;;;;22.13;15.27;;;-0.30;92.70;;;;;;5034812;28;20025;-62
2023/02/28 09:47:56;;;;;;;42.00;23.63;;;-0.20;92.00;;;;;;5035168;28;20091;-62
2023/02/28 09:50:32;;;;;;;62.35;32.85;;;-0.10;92.10;;;;;;5035745;28;20460;-64
2023/02/28 09:53:01;;;;;;;182.05;82.38;;;-0.20;91.70;;;;;;5035822;28;20029;-64
2023/02/28 09:55:39;;;;;;;50.65;27.55;;;-0.30;91.80;;;;;;5033939;28;20429;-64
2023/02/28 09:58:14;;;;;;;40.00;27.13;;;-0.20;92.00;;;;;;5018470;28;20049;-64
2023/02/28 10:00:42;;;;;;;32.05;20.55;;;-0.10;91.40;;;;;;5034579;28;20022;-64
2023/02/28 10:03:51;;;;;;;29.98;20.67;;;-0.10;91.70;;;;;;5021414;28;20026;-64
2023/02/28 10:06:19;;;;;;;29.70;22.67;;;0.10;91.50;;;;;;5033476;28;20075;-64
2023/02/28 10:09:17;;;;;;;28.13;18.42;;;0.30;91.30;;;;;;5033641;28;20117;-63
2023/02/28 10:11:45;;;;;;;25.15;17.42;;;0.60;91.10;;;;;;5025608;28;20033;-64
2023/02/28 10:14:17;;;;;;;24.33;16.30;;;0.60;89.50;;;;;;5015626;28;20037;-64
2023/02/28 10:16:54;;;;;;;21.58;15.30;;;0.60;89.60;;;;;;5013796;28;20032;-64
2023/02/28 10:19:55;;;;;;;24.27;15.48;;;0.60;89.00;;;;;;5028978;28;20033;-64
2023/02/28 10:22:26;;;;;;;24.60;15.15;;;0.70;89.00;;;;;;5035750;28;20017;-64
2023/02/28 10:24:56;;;;;;;30.45;20.30;;;1.10;88.20;;;;;;5033936;28;20049;-63
2023/02/28 10:27:24;;;;;;;25.05;16.40;;;1.30;88.00;;;;;;5016584;28;20033;-64
2023/02/28 10:29:52;;;;;;;24.80;16.92;;;1.50;87.10;;;;;;5015757;28;20112;-63
2023/02/28 10:32:22;;;;;;;24.70;17.40;;;1.40;86.20;;;;;;5014615;28;20030;-63
2023/02/28 10:35:09;;;;;;;30.30;19.05;;;1.20;86.80;;;;;;5016434;28;20088;-63
2023/02/28 10:37:38;;;;;;;25.15;16.40;;;1.30;88.00;;;;;;5019634;28;20103;-64
2023/02/28 10:40:06;;;;;;;25.38;18.05;;;1.50;87.50;;;;;;5019731;28;20481;-64
2023/02/28 10:42:33;;;;;;;22.58;16.27;;;1.90;87.00;;;;;;5022307;28;20041;-64
2023/02/28 10:45:05;;;;;;;24.50;15.38;;;2.20;85.50;;;;;;5018699;28;20057;-63
2023/02/28 10:47:33;;;;;;;21.00;14.35;;;2.10;84.90;;;;;;5020329;28;20057;-64
2023/02/28 10:49:59;;;;;;;22.85;15.35;;;2.00;84.50;;;;;;5019356;28;20088;-63
2023/02/28 10:52:41;;;;;;;20.48;14.18;;;1.90;85.60;;;;;;5027495;28;20036;-63
2023/02/28 10:55:22;;;;;;;19.73;14.25;;;2.00;85.40;;;;;;5037741;28;20021;-64
2023/02/28 10:57:48;;;;;;;21.88;15.25;;;2.20;84.90;;;;;;5038868;28;20032;-64
2023/02/28 11:00:19;;;;;;;21.55;15.15;;;2.20;84.60;;;;;;5037843;28;20065;-64
2023/02/28 11:02:46;;;;;;;19.80;14.80;;;2.20;85.00;;;;;;5038787;28;20034;-64
2023/02/28 11:05:29;;;;;;;25.77;16.15;;;2.20;83.60;;;;;;5038903;28;20047;-64
2023/02/28 11:07:59;;;;;;;24.27;15.70;;;2.10;85.10;;;;;;5024176;28;20026;-64
2023/02/28 11:10:28;;;;;;;22.92;16.15;;;2.20;84.30;;;;;;5021636;28;20029;-64
2023/02/28 11:12:57;;;;;;;20.10;13.35;;;2.60;84.40;;;;;;5038799;28;20037;-64
2023/02/28 11:15:25;;;;;;;22.13;14.10;;;2.90;83.80;;;;;;5037591;28;20026;-64
2023/02/28 11:18:04;;;;;;;21.50;14.45;;;3.30;82.50;;;;;;5038564;28;20064;-64
2023/02/28 11:20:33;;;;;;;26.73;17.83;;;3.30;81.80;;;;;;5038787;28;20049;-64
2023/02/28 11:23:02;;;;;;;22.83;15.43;;;3.00;82.00;;;;;;5023257;28;20105;-64
2023/02/28 11:25:36;;;;;;;20.58;15.07;;;2.90;82.30;;;;;;5033178;28;20103;-64
2023/02/28 11:28:24;;;;;;;24.23;14.57;;;2.70;82.70;;;;;;5038608;28;20026;-64
2023/02/28 11:31:13;;;;;;;19.50;13.75;;;2.80;82.70;;;;;;5037301;28;20048;-64
2023/02/28 11:33:53;;;;;;;20.55;14.82;;;2.90;82.00;;;;;;5034959;28;20109;-64
2023/02/28 11:36:26;;;;;;;20.90;13.75;;;2.50;82.40;;;;;;5038234;28;20092;-64
2023/02/28 11:38:56;;;;;;;20.00;14.32;;;2.20;83.20;;;;;;5036581;28;20284;-64
2023/02/28 11:42:01;;;;;;;26.33;18.95;;;2.00;84.20;;;;;;5037941;28;20029;-64
2023/02/28 11:44:54;;;;;;;22.55;14.75;;;2.10;85.70;;;;;;5026233;28;20029;-64
2023/02/28 11:47:35;;;;;;;21.70;14.48;;;2.50;83.50;;;;;;5037220;28;20096;-64
2023/02/28 11:50:25;;;;;;;23.70;17.75;;;2.70;83.00;;;;;;5038051;28;20025;-64
2023/02/28 11:52:54;;;;;;;22.42;15.10;;;2.90;83.00;;;;;;5024476;28;20052;-64
2023/02/28 11:55:27;;;;;;;19.13;14.15;;;2.90;82.50;;;;;;5035868;28;20036;-64
2023/02/28 11:57:58;;;;;;;18.20;13.18;;;3.10;82.20;;;;;;5037823;28;20044;-64
2023/02/28 12:00:38;;;;;;;17.48;12.95;;;3.50;81.90;;;;;;5036697;28;20330;-64
2023/02/28 12:03:34;;;;;;;20.15;13.85;;;3.40;80.00;;;;;;5037973;28;20025;-64
2023/02/28 12:06:20;;;;;;;20.30;14.20;;;3.30;81.40;;;;;;5035725;28;20385;-64
2023/02/28 12:09:09;;;;;;;20.35;13.82;;;2.80;82.00;;;;;;5037629;28;20025;-64
2023/02/28 12:11:53;;;;;;;18.55;12.82;;;3.00;82.60;;;;;;5033601;28;20083;-64
2023/02/28 12:14:45;;;;;;;19.45;14.05;;;3.10;81.80;;;;;;5037473;28;20100;-64
2023/02/28 12:17:43;;;;;;;19.85;13.85;;;3.20;81.90;;;;;;5036442;28;20021;-64
2023/02/28 12:20:36;;;;;;;18.25;13.65;;;2.90;81.10;;;;;;5015265;28;20107;-64
2023/02/28 12:23:27;;;;;;;19.05;13.23;;;3.10;83.30;;;;;;5034146;28;20329;-65
2023/02/28 12:26:09;;;;;;;17.67;13.10;;;3.90;81.10;;;;;;5035707;28;20116;-64
2023/02/28 12:28:41;;;;;;;17.80;13.60;;;4.10;80.40;;;;;;5026372;28;20037;-65
2023/02/28 12:31:20;;;;;;;16.60;12.43;;;4.80;79.80;;;;;;5016222;28;20033;-65
2023/02/28 12:33:51;;;;;;;17.48;13.23;;;5.50;77.60;;;;;;5017300;28;20033;-65
2023/02/28 12:36:21;;;;;;;14.73;12.10;;;5.40;77.00;;;;;;5017292;28;20025;-65
2023/02/28 12:39:01;;;;;;;18.00;12.73;;;5.40;77.10;;;;;;5032443;28;20549;-65
2023/02/28 12:41:45;;;;;;;18.55;13.70;;;5.30;77.00;;;;;;5034303;28;20354;-65
2023/02/28 12:44:38;;;;;;;21.83;14.30;;;4.90;76.70;;;;;;5038227;28;20033;-64
2023/02/28 12:47:08;;;;;;;19.58;15.77;;;4.50;79.70;;;;;;5033888;28;20029;-66
2023/02/28 12:49:41;;;;;;;18.10;13.48;;;4.50;79.20;;;;;;5035223;28;20025;-66
2023/02/28 12:52:10;;;;;;;18.70;13.73;;;5.20;79.20;;;;;;5033953;28;20033;-65